Time;durP1;ratioP1;P1;durP2;ratioP2;P2;SDS_P1;SDS_P2;PMS_P1;PMS_P2;Temp;Humidity;BMP_temperature;BMP_pressure;BME280_temperature;BME280_humidity;BME280_pressure;Samples;Min_cycle;Max_cycle;Signal;HPM_P1;HPM_P2
2021/09/16 00:00:12;;;;;;;8.80;6.13;;;22.80;95.50;;;;;;5051603;28;20025;-74
2021/09/16 00:02:39;;;;;;;17.65;5.63;;;22.80;95.50;;;;;;5052477;28;20103;-74
2021/09/16 00:05:06;;;;;;;11.63;5.80;;;22.80;95.50;;;;;;5035781;28;20491;-74
2021/09/16 00:07:31;;;;;;;12.85;6.35;;;22.80;95.60;;;;;;5032461;28;20018;-74
2021/09/16 00:09:57;;;;;;;13.40;6.10;;;22.80;95.50;;;;;;5050357;28;20032;-74
2021/09/16 00:12:23;;;;;;;17.48;7.00;;;22.80;95.60;;;;;;5052268;28;20051;-74
2021/09/16 00:14:48;;;;;;;14.43;6.28;;;22.70;95.60;;;;;;5052207;28;20033;-74
2021/09/16 00:17:14;;;;;;;9.52;6.32;;;22.70;95.60;;;;;;5051962;28;20029;-74
2021/09/16 00:19:40;;;;;;;12.48;6.68;;;22.70;95.60;;;;;;5052128;28;20024;-74
2021/09/16 00:22:05;;;;;;;13.07;5.57;;;22.70;95.60;;;;;;5052241;28;20104;-74
2021/09/16 00:24:31;;;;;;;14.20;5.57;;;22.70;95.50;;;;;;5052078;28;20041;-74
2021/09/16 00:26:57;;;;;;;9.70;5.60;;;22.70;95.50;;;;;;5052115;28;20629;-74
2021/09/16 00:29:23;;;;;;;14.05;6.50;;;22.70;95.50;;;;;;5050606;28;20514;-74
2021/09/16 00:31:48;;;;;;;22.23;5.88;;;22.70;95.50;;;;;;5051812;28;20533;-74
2021/09/16 00:34:14;;;;;;;10.45;6.47;;;22.70;95.50;;;;;;5051819;28;20033;-74
2021/09/16 00:36:40;;;;;;;14.07;5.53;;;22.70;95.60;;;;;;5051664;28;20032;-74
2021/09/16 00:39:06;;;;;;;14.45;5.68;;;22.70;96.00;;;;;;5050626;28;20434;-74
2021/09/16 00:41:32;;;;;;;13.07;5.50;;;22.70;95.70;;;;;;5050588;28;20032;-74
2021/09/16 00:43:58;;;;;;;13.63;5.63;;;22.70;95.80;;;;;;5051562;28;20017;-74
2021/09/16 00:46:24;;;;;;;11.75;5.35;;;22.70;95.80;;;;;;5051835;28;20079;-74
2021/09/16 00:48:50;;;;;;;13.63;6.10;;;22.70;95.80;;;;;;5050178;28;20029;-74
2021/09/16 00:51:16;;;;;;;11.30;5.75;;;22.60;95.80;;;;;;5051813;28;20017;-73
2021/09/16 00:53:43;;;;;;;10.27;5.30;;;22.70;95.80;;;;;;5051554;28;20028;-74
2021/09/16 00:56:10;;;;;;;16.35;5.38;;;22.60;95.70;;;;;;5051587;28;20021;-74
2021/09/16 00:58:40;;;;;;;10.65;5.65;;;22.70;95.80;;;;;;5051596;28;20028;-74
2021/09/16 01:01:07;;;;;;;22.65;6.15;;;22.60;95.90;;;;;;5050176;28;20029;-74
2021/09/16 01:03:33;;;;;;;8.05;5.15;;;22.60;95.90;;;;;;5051072;28;20091;-74
2021/09/16 01:05:59;;;;;;;12.65;5.10;;;22.60;95.90;;;;;;5050779;28;20029;-74
2021/09/16 01:08:25;;;;;;;13.52;5.32;;;22.60;96.00;;;;;;5051449;28;20112;-74
2021/09/16 01:10:51;;;;;;;16.27;6.57;;;22.70;96.00;;;;;;5051482;28;20151;-74
2021/09/16 01:13:17;;;;;;;11.93;5.60;;;22.70;96.00;;;;;;5049710;28;20037;-74
2021/09/16 01:15:45;;;;;;;13.93;5.70;;;22.70;96.00;;;;;;5051410;28;20196;-74
2021/09/16 01:18:11;;;;;;;13.98;5.13;;;22.70;96.20;;;;;;5051334;28;20024;-74
2021/09/16 01:20:38;;;;;;;18.38;5.65;;;22.60;96.10;;;;;;5051251;28;20025;-74
2021/09/16 01:23:04;;;;;;;11.57;4.90;;;22.60;96.30;;;;;;5051337;28;20024;-74
2021/09/16 01:25:31;;;;;;;11.63;5.90;;;22.60;96.50;;;;;;5051109;28;20029;-74
2021/09/16 01:27:59;;;;;;;14.23;5.18;;;22.60;96.60;;;;;;5051202;28;20029;-74
2021/09/16 01:30:26;;;;;;;13.45;5.57;;;22.60;96.50;;;;;;5051198;28;20566;-74
2021/09/16 01:32:55;;;;;;;17.60;5.47;;;22.60;96.50;;;;;;5051141;28;20021;-74
2021/09/16 01:35:21;;;;;;;16.40;5.80;;;22.50;96.50;;;;;;5050370;28;20061;-74
2021/09/16 01:37:47;;;;;;;11.05;4.95;;;22.50;96.60;;;;;;5051012;28;20029;-74
2021/09/16 01:40:13;;;;;;;13.45;5.53;;;22.50;96.70;;;;;;5051195;28;20028;-74
2021/09/16 01:42:43;;;;;;;9.88;5.70;;;22.50;96.90;;;;;;5051243;28;20025;-74
2021/09/16 01:45:13;;;;;;;10.38;5.50;;;22.50;97.00;;;;;;5051178;28;20032;-74
2021/09/16 01:47:40;;;;;;;12.23;4.75;;;22.40;97.00;;;;;;5051096;28;20036;-74
2021/09/16 01:50:06;;;;;;;7.90;5.40;;;22.40;97.00;;;;;;5066646;28;20024;-74
2021/09/16 01:52:32;;;;;;;12.10;5.63;;;22.40;97.10;;;;;;5070960;28;20063;-74
2021/09/16 01:54:58;;;;;;;16.88;5.10;;;22.40;97.10;;;;;;5071036;28;20063;-74
2021/09/16 01:57:23;;;;;;;14.05;5.40;;;22.40;97.20;;;;;;5071108;28;20056;-74
2021/09/16 01:59:49;;;;;;;21.20;5.82;;;22.30;97.40;;;;;;5071103;28;20013;-74
2021/09/16 02:02:15;;;;;;;13.95;5.65;;;22.30;97.40;;;;;;5065892;28;20502;-74
2021/09/16 02:04:40;;;;;;;10.15;5.40;;;22.30;97.50;;;;;;5037456;28;20022;-74
2021/09/16 02:07:06;;;;;;;12.23;4.88;;;22.30;97.50;;;;;;5031051;28;20479;-73
2021/09/16 02:09:32;;;;;;;9.38;5.78;;;22.30;97.50;;;;;;5031083;28;20022;-74
2021/09/16 02:11:57;;;;;;;15.18;5.55;;;22.30;97.60;;;;;;5042399;28;20532;-74
2021/09/16 02:14:23;;;;;;;13.32;5.10;;;22.30;97.60;;;;;;5050815;28;20033;-74
2021/09/16 02:16:49;;;;;;;14.38;5.05;;;22.30;97.70;;;;;;5052892;28;20483;-74
2021/09/16 02:19:14;;;;;;;12.07;5.80;;;22.30;97.70;;;;;;5053386;28;20062;-74
2021/09/16 02:21:40;;;;;;;8.20;4.95;;;22.30;97.70;;;;;;5054097;28;20029;-74
2021/09/16 02:24:06;;;;;;;12.10;5.45;;;22.30;97.80;;;;;;5054484;28;20449;-74
2021/09/16 02:26:32;;;;;;;14.55;5.32;;;22.30;97.70;;;;;;5054484;28;20028;-74
2021/09/16 02:28:57;;;;;;;16.00;5.60;;;22.30;97.70;;;;;;5054030;28;20035;-74
2021/09/16 02:31:23;;;;;;;14.85;4.78;;;22.30;97.80;;;;;;5054324;28;20075;-74
2021/09/16 02:33:49;;;;;;;16.67;4.57;;;22.30;97.70;;;;;;5047748;28;20441;-74
2021/09/16 02:36:14;;;;;;;20.60;5.55;;;22.30;97.70;;;;;;5034339;28;20018;-74
2021/09/16 02:38:40;;;;;;;14.38;5.18;;;22.20;97.70;;;;;;5035033;28;20026;-74
2021/09/16 02:41:06;;;;;;;8.48;4.68;;;22.30;97.70;;;;;;5052605;28;20116;-74
2021/09/16 02:43:32;;;;;;;8.80;4.88;;;22.20;97.80;;;;;;5053893;28;20429;-74
2021/09/16 02:45:57;;;;;;;11.13;5.18;;;22.20;97.80;;;;;;5053821;28;20029;-73
2021/09/16 02:48:23;;;;;;;11.68;5.20;;;22.20;97.90;;;;;;5054127;28;20479;-74
2021/09/16 02:50:49;;;;;;;14.52;4.80;;;22.20;98.00;;;;;;5053546;28;20083;-74
2021/09/16 02:53:15;;;;;;;10.73;5.05;;;22.20;97.90;;;;;;5051587;28;20070;-74
2021/09/16 02:55:41;;;;;;;18.85;5.32;;;22.20;97.90;;;;;;5053003;28;20499;-74
2021/09/16 02:58:07;;;;;;;14.02;5.15;;;22.20;98.00;;;;;;5053783;28;20052;-74
2021/09/16 03:00:33;;;;;;;15.40;5.40;;;22.30;97.70;;;;;;5053041;28;20032;-74
2021/09/16 03:02:59;;;;;;;9.70;5.13;;;22.30;97.80;;;;;;5054046;28;20028;-74
2021/09/16 03:05:24;;;;;;;11.27;5.15;;;22.30;97.20;;;;;;5048913;28;20076;-73
2021/09/16 03:07:50;;;;;;;11.10;5.57;;;22.40;97.40;;;;;;5052649;28;20485;-74
2021/09/16 03:10:16;;;;;;;14.32;5.55;;;22.40;97.50;;;;;;5052414;28;20052;-74
2021/09/16 03:12:42;;;;;;;12.52;5.70;;;22.30;97.80;;;;;;5051157;28;20061;-74
2021/09/16 03:15:09;;;;;;;9.70;5.60;;;22.20;98.20;;;;;;5052602;28;20033;-74
2021/09/16 03:17:35;;;;;;;11.05;5.35;;;22.20;98.20;;;;;;5050848;28;20513;-74
2021/09/16 03:20:02;;;;;;;15.15;5.22;;;22.20;98.20;;;;;;5052856;28;20078;-74
2021/09/16 03:22:28;;;;;;;9.52;5.05;;;22.20;98.40;;;;;;5052626;28;20029;-74
2021/09/16 03:24:54;;;;;;;10.32;5.95;;;22.10;98.30;;;;;;5053071;28;20106;-74
2021/09/16 03:27:19;;;;;;;12.98;5.43;;;22.10;98.40;;;;;;5051676;28;20108;-75
2021/09/16 03:29:45;;;;;;;8.52;5.28;;;22.00;98.70;;;;;;5052509;28;20494;-75
2021/09/16 03:32:11;;;;;;;18.25;5.57;;;22.00;98.60;;;;;;5051986;28;20095;-75
2021/09/16 03:34:36;;;;;;;9.38;5.22;;;22.00;98.70;;;;;;5040337;28;20030;-75
2021/09/16 03:37:02;;;;;;;13.77;5.35;;;22.00;98.70;;;;;;5031695;28;21050;-75
2021/09/16 03:39:28;;;;;;;8.35;4.80;;;22.00;98.80;;;;;;5031650;28;20029;-75
2021/09/16 03:41:54;;;;;;;10.30;4.90;;;22.00;98.60;;;;;;5045410;28;20029;-75
2021/09/16 03:44:19;;;;;;;16.13;5.25;;;22.00;98.70;;;;;;5050364;28;20075;-75
2021/09/16 03:46:45;;;;;;;8.98;4.88;;;22.00;98.70;;;;;;5051677;28;20479;-75
2021/09/16 03:49:11;;;;;;;9.07;5.03;;;22.00;98.80;;;;;;5051363;28;20040;-75
2021/09/16 03:51:37;;;;;;;6.85;4.53;;;21.90;98.80;;;;;;5054926;28;20029;-75
2021/09/16 03:54:02;;;;;;;10.55;4.72;;;21.90;98.80;;;;;;5050250;28;20055;-75
2021/09/16 03:56:28;;;;;;;15.88;5.45;;;21.90;98.90;;;;;;5051460;28;20349;-75
2021/09/16 03:58:54;;;;;;;12.02;4.47;;;21.90;98.90;;;;;;5052950;28;20021;-75
2021/09/16 04:01:20;;;;;;;11.55;5.22;;;21.90;98.90;;;;;;5052794;28;20017;-75
2021/09/16 04:03:46;;;;;;;8.25;4.53;;;21.90;98.80;;;;;;5052444;28;20086;-75
2021/09/16 04:06:12;;;;;;;10.48;5.13;;;21.90;98.80;;;;;;5052713;28;20028;-75
2021/09/16 04:08:38;;;;;;;16.63;5.45;;;21.90;98.90;;;;;;5052469;28;20544;-75
2021/09/16 04:11:04;;;;;;;12.63;5.38;;;21.90;98.80;;;;;;5052485;28;20032;-75
2021/09/16 04:13:30;;;;;;;13.30;5.57;;;21.90;99.20;;;;;;5052567;28;20098;-75
2021/09/16 04:15:56;;;;;;;10.25;4.53;;;21.90;98.90;;;;;;5050995;28;20079;-75
2021/09/16 04:18:21;;;;;;;9.30;4.70;;;21.90;99.00;;;;;;5050874;28;20021;-75
2021/09/16 04:20:47;;;;;;;9.55;5.00;;;21.90;99.00;;;;;;5051178;28;20025;-75
2021/09/16 04:23:13;;;;;;;13.27;4.90;;;21.80;99.00;;;;;;5050927;28;20252;-75
2021/09/16 04:25:38;;;;;;;10.98;5.15;;;21.80;98.90;;;;;;5052081;28;20051;-75
2021/09/16 04:28:04;;;;;;;7.68;4.68;;;21.90;99.00;;;;;;5052317;28;20111;-75
2021/09/16 04:30:30;;;;;;;16.48;5.03;;;21.80;98.90;;;;;;5051863;28;20045;-75
2021/09/16 04:32:55;;;;;;;5.47;4.35;;;21.90;98.80;;;;;;5052093;28;20032;-75
2021/09/16 04:35:21;;;;;;;13.68;4.88;;;21.90;98.80;;;;;;5051948;28;20041;-75
2021/09/16 04:37:47;;;;;;;12.73;4.85;;;22.00;98.70;;;;;;5051953;28;20048;-75
2021/09/16 04:40:13;;;;;;;13.93;5.25;;;22.00;98.50;;;;;;5051765;28;20029;-75
2021/09/16 04:42:39;;;;;;;10.43;5.28;;;22.00;98.40;;;;;;5051869;28;20021;-75
2021/09/16 04:45:07;;;;;;;11.38;4.82;;;22.00;98.40;;;;;;5051758;28;20040;-75
2021/09/16 04:47:33;;;;;;;16.10;4.78;;;22.00;98.40;;;;;;5051764;28;20033;-75
2021/09/16 04:49:58;;;;;;;7.10;4.55;;;22.00;98.50;;;;;;5051949;28;20387;-75
2021/09/16 04:52:25;;;;;;;12.32;4.25;;;21.90;98.50;;;;;;5051661;28;20078;-75
2021/09/16 04:54:51;;;;;;;11.52;5.05;;;22.00;98.50;;;;;;5050496;28;20033;-75
2021/09/16 04:57:17;;;;;;;8.63;4.53;;;22.00;98.50;;;;;;5051915;28;20028;-75
2021/09/16 04:59:43;;;;;;;10.13;4.22;;;22.00;98.50;;;;;;5050394;28;20028;-76
2021/09/16 05:02:08;;;;;;;12.85;5.13;;;21.90;98.60;;;;;;5051699;28;20025;-76
2021/09/16 05:04:34;;;;;;;12.10;4.55;;;21.90;98.70;;;;;;5051433;28;20025;-75
2021/09/16 05:07:00;;;;;;;10.50;4.78;;;21.90;98.80;;;;;;5050293;28;20025;-75
2021/09/16 05:09:25;;;;;;;8.65;4.40;;;21.90;98.70;;;;;;5051652;28;20487;-76
2021/09/16 05:11:51;;;;;;;16.85;4.63;;;21.90;98.70;;;;;;5051528;28;20111;-75
2021/09/16 05:14:17;;;;;;;13.23;4.65;;;21.90;98.70;;;;;;5049997;28;20175;-75
2021/09/16 05:16:43;;;;;;;11.00;5.28;;;21.90;98.70;;;;;;5051450;28;20025;-75
2021/09/16 05:19:09;;;;;;;14.10;4.97;;;21.90;98.80;;;;;;5051407;28;20017;-75
2021/09/16 05:21:35;;;;;;;13.98;5.25;;;21.80;98.80;;;;;;5050138;28;20099;-75
2021/09/16 05:24:00;;;;;;;11.02;4.75;;;21.90;98.80;;;;;;5051386;28;20414;-75
2021/09/16 05:26:26;;;;;;;12.05;4.80;;;21.90;98.90;;;;;;5051249;28;20502;-76
2021/09/16 05:28:52;;;;;;;14.55;4.97;;;21.90;99.00;;;;;;5050131;28;20360;-75
2021/09/16 05:31:18;;;;;;;10.90;4.72;;;21.90;99.30;;;;;;5051188;28;20041;-75
2021/09/16 05:33:43;;;;;;;12.63;5.30;;;21.90;99.10;;;;;;5051156;28;20021;-75
2021/09/16 05:36:09;;;;;;;17.50;5.57;;;21.90;99.20;;;;;;5049928;28;20040;-75
2021/09/16 05:38:35;;;;;;;8.98;4.85;;;21.90;99.10;;;;;;5051185;28;20033;-76
2021/09/16 05:41:00;;;;;;;11.65;4.75;;;21.90;99.00;;;;;;5051188;28;20475;-75
2021/09/16 05:43:26;;;;;;;8.57;4.90;;;21.90;99.00;;;;;;5051158;28;20032;-75
2021/09/16 05:45:52;;;;;;;9.07;4.68;;;22.00;99.00;;;;;;5050996;28;20379;-75
2021/09/16 05:48:20;;;;;;;9.40;4.10;;;22.00;98.90;;;;;;5050992;28;20025;-76
2021/09/16 05:50:46;;;;;;;13.90;3.97;;;22.00;98.90;;;;;;5054452;28;20391;-75
2021/09/16 05:53:12;;;;;;;8.45;4.10;;;22.00;98.90;;;;;;5055092;28;20025;-75
2021/09/16 05:55:39;;;;;;;15.20;5.25;;;22.00;99.00;;;;;;5054689;28;20021;-75
2021/09/16 05:58:06;;;;;;;13.55;4.75;;;22.10;99.40;;;;;;5053676;28;20386;-75
2021/09/16 06:00:32;;;;;;;6.97;5.03;;;22.10;99.70;;;;;;5054778;28;20025;-75
2021/09/16 06:02:58;;;;;;;10.27;4.53;;;22.10;99.70;;;;;;5054527;28;20023;-75
2021/09/16 06:05:23;;;;;;;13.63;5.22;;;22.10;99.60;;;;;;5053871;28;20490;-75
2021/09/16 06:07:49;;;;;;;10.48;5.00;;;22.10;99.80;;;;;;5054405;28;20017;-75
2021/09/16 06:10:15;;;;;;;8.85;4.55;;;22.10;99.70;;;;;;5053299;28;20062;-75
2021/09/16 06:12:41;;;;;;;12.77;4.57;;;22.20;99.30;;;;;;5055384;28;20168;-75
2021/09/16 06:15:08;;;;;;;15.52;4.50;;;22.20;99.00;;;;;;5055101;28;20088;-75
2021/09/16 06:17:34;;;;;;;16.60;4.45;;;22.20;98.90;;;;;;5053402;28;20107;-75
2021/09/16 06:20:00;;;;;;;16.92;4.78;;;22.20;98.70;;;;;;5054672;28;20104;-75
2021/09/16 06:22:26;;;;;;;12.07;4.78;;;22.20;98.60;;;;;;5054578;28;20501;-76
2021/09/16 06:24:53;;;;;;;11.40;4.95;;;22.30;98.50;;;;;;5054518;28;20552;-75
2021/09/16 06:27:19;;;;;;;11.98;4.90;;;22.30;98.70;;;;;;5054367;28;20033;-75
2021/09/16 06:29:45;;;;;;;16.20;5.25;;;22.40;99.50;;;;;;5054460;28;20086;-75
2021/09/16 06:32:10;;;;;;;12.43;4.72;;;22.40;99.70;;;;;;5054314;28;20411;-75
2021/09/16 06:34:36;;;;;;;10.35;5.00;;;22.40;99.80;;;;;;5054209;28;20029;-75
2021/09/16 06:37:02;;;;;;;7.82;4.28;;;22.40;99.90;;;;;;5053253;28;20021;-76
2021/09/16 06:39:28;;;;;;;14.90;4.95;;;22.40;99.90;;;;;;5054088;28;20488;-75
2021/09/16 06:41:54;;;;;;;12.80;5.20;;;22.40;99.90;;;;;;5054089;28;20100;-75
2021/09/16 06:44:20;;;;;;;15.15;4.75;;;22.40;99.90;;;;;;5052766;28;20402;-76
2021/09/16 06:46:45;;;;;;;8.82;4.95;;;22.40;99.90;;;;;;5054160;28;20032;-75
2021/09/16 06:49:11;;;;;;;12.07;5.25;;;22.40;99.90;;;;;;5054006;28;20036;-75
2021/09/16 06:51:37;;;;;;;8.48;5.20;;;22.50;99.90;;;;;;5054061;28;20021;-75
2021/09/16 06:54:02;;;;;;;18.33;5.13;;;22.50;99.90;;;;;;5052448;28;20505;-75
2021/09/16 06:56:28;;;;;;;10.50;5.32;;;22.60;99.90;;;;;;5053960;28;20017;-75
2021/09/16 06:58:54;;;;;;;18.27;4.57;;;22.60;99.90;;;;;;5053980;28;20025;-76
2021/09/16 07:01:20;;;;;;;20.67;5.57;;;22.60;99.60;;;;;;5053709;28;20025;-75
2021/09/16 07:03:47;;;;;;;10.85;5.30;;;22.60;99.90;;;;;;5054103;28;20021;-75
2021/09/16 07:06:13;;;;;;;14.68;5.53;;;22.70;99.90;;;;;;5053836;28;20025;-75
2021/09/16 07:08:38;;;;;;;23.35;6.45;;;22.70;99.90;;;;;;5053166;28;20025;-75
2021/09/16 07:11:10;;;;;;;25.27;5.72;;;22.80;99.90;;;;;;5052990;28;20548;-75
2021/09/16 07:13:40;;;;;;;13.38;5.60;;;22.70;99.90;;;;;;5052507;28;20066;-75
2021/09/16 07:16:06;;;;;;;16.38;5.45;;;22.70;99.90;;;;;;5052905;28;20063;-75
2021/09/16 07:18:34;;;;;;;9.63;6.03;;;22.80;99.90;;;;;;5053230;28;20052;-75
2021/09/16 07:21:00;;;;;;;11.80;5.15;;;22.80;99.90;;;;;;5053489;28;20390;-75
2021/09/16 07:23:26;;;;;;;15.57;6.88;;;22.80;99.90;;;;;;5053243;28;20025;-75
2021/09/16 07:25:52;;;;;;;18.50;6.30;;;22.80;99.90;;;;;;5053239;28;20037;-75
2021/09/16 07:28:18;;;;;;;21.17;6.75;;;22.80;99.90;;;;;;5053393;28;20028;-75
2021/09/16 07:30:43;;;;;;;21.08;6.53;;;22.80;99.90;;;;;;5053046;28;20055;-75
2021/09/16 07:33:09;;;;;;;17.05;6.93;;;22.70;99.90;;;;;;5053168;28;20025;-75
2021/09/16 07:35:35;;;;;;;29.60;7.32;;;22.70;99.90;;;;;;5052934;28;20036;-75
2021/09/16 07:38:00;;;;;;;20.85;7.72;;;22.60;99.90;;;;;;5053017;28;20086;-75
2021/09/16 07:40:26;;;;;;;25.05;8.63;;;22.60;99.90;;;;;;5053052;28;20368;-75
2021/09/16 07:42:52;;;;;;;19.75;7.82;;;22.50;99.90;;;;;;5052984;28;20367;-75
2021/09/16 07:45:17;;;;;;;19.25;8.57;;;22.50;99.90;;;;;;5055089;28;20398;-75
2021/09/16 07:47:43;;;;;;;25.08;8.20;;;22.50;99.90;;;;;;5051660;28;20075;-74
2021/09/16 07:50:10;;;;;;;22.13;8.63;;;22.60;99.90;;;;;;5052775;28;20337;-75
2021/09/16 07:52:36;;;;;;;20.00;9.45;;;22.50;99.90;;;;;;5052889;28;20060;-75
2021/09/16 07:55:02;;;;;;;23.80;8.70;;;22.40;99.90;;;;;;5052550;28;20478;-75
2021/09/16 07:57:27;;;;;;;22.17;9.20;;;22.40;99.90;;;;;;5052609;28;20082;-74
2021/09/16 07:59:53;;;;;;;19.67;8.80;;;22.30;99.90;;;;;;5052556;28;20414;-74
2021/09/16 08:02:19;;;;;;;29.33;9.68;;;22.40;99.90;;;;;;5052691;28;20052;-74
2021/09/16 08:04:44;;;;;;;17.38;9.07;;;22.30;99.90;;;;;;5052359;28;20276;-74
2021/09/16 08:07:10;;;;;;;22.63;10.15;;;22.30;99.90;;;;;;5052559;28;20036;-74
2021/09/16 08:09:36;;;;;;;26.23;10.30;;;22.30;99.90;;;;;;5052300;28;20108;-75
2021/09/16 08:12:02;;;;;;;25.45;11.50;;;22.30;99.90;;;;;;5052321;28;20498;-74
2021/09/16 08:14:30;;;;;;;20.50;10.32;;;22.30;99.90;;;;;;5051711;28;20021;-74
2021/09/16 08:16:57;;;;;;;17.85;9.32;;;22.30;99.90;;;;;;5051068;28;20418;-74
2021/09/16 08:19:23;;;;;;;21.75;9.88;;;22.10;99.90;;;;;;5052179;28;20045;-75
2021/09/16 08:21:49;;;;;;;20.90;10.30;;;22.10;99.90;;;;;;5052205;28;20500;-74
2021/09/16 08:24:14;;;;;;;21.50;9.88;;;22.20;99.90;;;;;;5052122;28;20036;-75
2021/09/16 08:26:40;;;;;;;20.73;9.57;;;22.20;99.90;;;;;;5052030;28;20107;-75
2021/09/16 08:29:06;;;;;;;19.00;10.02;;;22.20;99.90;;;;;;5052150;28;20097;-75
2021/09/16 08:31:32;;;;;;;18.05;9.38;;;22.30;99.90;;;;;;5050729;28;20037;-75
2021/09/16 08:33:58;;;;;;;25.02;9.43;;;22.30;99.90;;;;;;5051881;28;20066;-74
2021/09/16 08:36:24;;;;;;;28.17;10.43;;;22.30;99.90;;;;;;5051982;28;20033;-75
2021/09/16 08:38:50;;;;;;;19.30;9.65;;;22.30;99.90;;;;;;5052059;28;20427;-75
2021/09/16 08:41:15;;;;;;;24.85;10.75;;;22.30;99.90;;;;;;5051727;28;20368;-75
2021/09/16 08:43:43;;;;;;;25.45;10.38;;;22.40;99.90;;;;;;5052006;28;20021;-75
2021/09/16 08:46:09;;;;;;;27.13;10.15;;;22.40;99.90;;;;;;5050637;28;20036;-75
2021/09/16 08:48:35;;;;;;;22.95;9.73;;;22.40;99.90;;;;;;5051722;28;20215;-75
2021/09/16 08:51:02;;;;;;;20.52;10.35;;;22.40;99.90;;;;;;5051762;28;20550;-75
2021/09/16 08:53:29;;;;;;;24.25;11.45;;;22.50;99.90;;;;;;5051785;28;20028;-75
2021/09/16 08:55:57;;;;;;;22.38;11.32;;;22.40;99.90;;;;;;5050260;28;20082;-75
2021/09/16 08:58:29;;;;;;;25.88;10.80;;;22.40;99.90;;;;;;5051543;28;20024;-75
2021/09/16 09:00:55;;;;;;;26.33;10.35;;;22.30;99.90;;;;;;5051489;28;20086;-74
2021/09/16 09:03:21;;;;;;;24.40;10.68;;;22.40;99.90;;;;;;5051492;28;20036;-75
2021/09/16 09:05:47;;;;;;;23.23;11.20;;;22.30;99.90;;;;;;5051608;28;20032;-75
2021/09/16 09:08:13;;;;;;;17.55;10.55;;;22.40;99.90;;;;;;5051438;28;20013;-75
2021/09/16 09:10:44;;;;;;;19.85;10.75;;;22.40;99.90;;;;;;5051543;28;20390;-75
2021/09/16 09:13:17;;;;;;;27.88;11.40;;;22.40;99.90;;;;;;5051411;28;20033;-75
2021/09/16 09:15:47;;;;;;;21.80;10.18;;;22.40;99.90;;;;;;5051244;28;20098;-75
2021/09/16 09:18:17;;;;;;;23.40;12.32;;;22.50;99.90;;;;;;5051352;28;20029;-75
2021/09/16 09:21:03;;;;;;;31.92;11.68;;;22.50;99.90;;;;;;5051459;28;20044;-75
2021/09/16 09:23:33;;;;;;;20.60;10.15;;;22.50;99.90;;;;;;5051439;28;20021;-75
2021/09/16 09:26:00;;;;;;;20.27;10.43;;;22.60;99.90;;;;;;5052598;28;20037;-75
2021/09/16 09:28:33;;;;;;;19.65;10.05;;;22.60;99.90;;;;;;5055582;28;20031;-75
2021/09/16 09:31:12;;;;;;;20.60;10.20;;;22.60;99.90;;;;;;5055441;28;20079;-75
2021/09/16 09:33:37;;;;;;;21.88;10.95;;;22.60;99.90;;;;;;5055163;28;20428;-75
2021/09/16 09:36:10;;;;;;;25.10;11.75;;;22.70;99.90;;;;;;5055220;28;20080;-75
2021/09/16 09:38:47;;;;;;;21.92;11.18;;;22.70;99.90;;;;;;5054132;28;20045;-75
2021/09/16 09:41:32;;;;;;;31.48;11.23;;;22.60;99.90;;;;;;5053846;28;20029;-75
2021/09/16 09:44:14;;;;;;;17.20;10.50;;;22.60;99.90;;;;;;5054985;28;20491;-75
2021/09/16 09:46:50;;;;;;;20.08;10.15;;;22.70;99.90;;;;;;5055174;28;20056;-75
2021/09/16 09:49:20;;;;;;;23.65;11.15;;;22.70;99.90;;;;;;5055047;28;20021;-75
2021/09/16 09:51:51;;;;;;;22.00;11.18;;;22.70;99.90;;;;;;5055042;28;20029;-75
2021/09/16 09:54:16;;;;;;;20.45;10.20;;;22.80;99.90;;;;;;5057318;28;20154;-75
2021/09/16 09:57:01;;;;;;;27.48;12.38;;;22.80;99.90;;;;;;5055047;28;20100;-75
2021/09/16 09:59:29;;;;;;;19.35;10.15;;;22.80;99.90;;;;;;5055080;28;20029;-75
2021/09/16 10:02:03;;;;;;;27.92;11.05;;;22.80;99.90;;;;;;5054745;28;20014;-75
2021/09/16 10:04:30;;;;;;;21.38;11.80;;;22.80;99.90;;;;;;5054597;28;20025;-75
2021/09/16 10:06:57;;;;;;;22.25;10.70;;;22.80;99.90;;;;;;5054762;28;20344;-75
2021/09/16 10:09:23;;;;;;;21.95;10.45;;;22.80;99.90;;;;;;5055860;28;20079;-75
2021/09/16 10:11:51;;;;;;;21.67;10.25;;;22.90;99.90;;;;;;5055515;28;20032;-75
2021/09/16 10:14:18;;;;;;;19.35;9.15;;;22.90;99.90;;;;;;5055665;28;20083;-75
2021/09/16 10:16:45;;;;;;;22.48;9.65;;;23.00;99.90;;;;;;5055672;28;20017;-75
2021/09/16 10:19:11;;;;;;;21.65;10.65;;;23.00;99.90;;;;;;5055828;28;20014;-75
2021/09/16 10:21:38;;;;;;;15.30;9.38;;;23.10;99.90;;;;;;5055831;28;20025;-75
2021/09/16 10:24:06;;;;;;;22.25;10.88;;;23.10;99.90;;;;;;5055642;28;20017;-75
2021/09/16 10:26:36;;;;;;;27.17;12.95;;;23.20;99.90;;;;;;5055647;28;20632;-75
2021/09/16 10:29:06;;;;;;;22.55;11.18;;;23.20;99.90;;;;;;5055313;28;20486;-75
2021/09/16 10:31:32;;;;;;;28.30;12.43;;;23.20;99.90;;;;;;5055017;28;20087;-75
2021/09/16 10:33:58;;;;;;;17.40;9.60;;;23.10;99.90;;;;;;5055076;28;20021;-75
2021/09/16 10:36:24;;;;;;;20.75;10.70;;;23.10;99.90;;;;;;5053547;28;20139;-75
2021/09/16 10:38:53;;;;;;;17.15;9.82;;;23.20;99.90;;;;;;5055321;28;20059;-75
2021/09/16 10:41:28;;;;;;;19.67;10.25;;;23.30;99.90;;;;;;5055521;28;20498;-75
2021/09/16 10:43:59;;;;;;;21.83;10.15;;;23.40;99.90;;;;;;5055340;28;20029;-75
2021/09/16 10:46:45;;;;;;;19.95;10.60;;;23.50;99.90;;;;;;5053836;28;20041;-75
2021/09/16 10:49:20;;;;;;;24.80;10.88;;;23.50;99.90;;;;;;5054997;28;20029;-75
2021/09/16 10:51:56;;;;;;;17.80;10.23;;;23.60;99.90;;;;;;5055095;28;20064;-75
2021/09/16 10:54:28;;;;;;;20.75;9.00;;;23.60;99.90;;;;;;5054907;28;20424;-75
2021/09/16 10:57:05;;;;;;;21.45;9.90;;;23.60;99.90;;;;;;5055135;28;20098;-75
2021/09/16 10:59:52;;;;;;;22.58;10.38;;;23.60;99.90;;;;;;5055016;28;20075;-75
2021/09/16 11:02:19;;;;;;;20.13;9.38;;;23.70;99.90;;;;;;5054741;28;20056;-75
2021/09/16 11:05:12;;;;;;;16.13;8.30;;;23.70;99.90;;;;;;5054705;28;20025;-75
2021/09/16 11:07:38;;;;;;;20.45;9.85;;;23.70;99.90;;;;;;5053859;28;20048;-75
2021/09/16 11:10:16;;;;;;;18.67;8.68;;;23.70;99.90;;;;;;5054839;28;20021;-75
2021/09/16 11:13:04;;;;;;;19.05;8.82;;;23.80;99.90;;;;;;5054685;28;20536;-75
2021/09/16 11:15:40;;;;;;;15.00;7.93;;;23.70;99.90;;;;;;5054630;28;20621;-75
2021/09/16 11:18:16;;;;;;;14.52;8.20;;;23.70;99.90;;;;;;5054744;28;20433;-75
2021/09/16 11:20:45;;;;;;;13.68;8.52;;;23.70;99.90;;;;;;5054696;28;20026;-75
2021/09/16 11:23:12;;;;;;;14.38;8.00;;;23.70;99.90;;;;;;5054375;28;20450;-75
2021/09/16 11:25:47;;;;;;;18.77;7.90;;;23.70;99.90;;;;;;5054353;28;20033;-75
2021/09/16 11:28:14;;;;;;;16.73;7.70;;;23.70;99.90;;;;;;5054477;28;20101;-75
2021/09/16 11:30:41;;;;;;;16.00;7.35;;;23.70;99.90;;;;;;5054246;28;20048;-75
2021/09/16 11:33:11;;;;;;;15.32;7.72;;;23.80;99.90;;;;;;5054082;28;20083;-75
2021/09/16 11:35:37;;;;;;;18.63;7.38;;;23.80;99.90;;;;;;5053838;28;20484;-75
2021/09/16 11:38:05;;;;;;;19.92;7.95;;;23.80;99.90;;;;;;5054293;28;20381;-75
2021/09/16 11:40:39;;;;;;;26.20;8.05;;;23.80;99.90;;;;;;5053888;28;20051;-75
2021/09/16 11:43:10;;;;;;;14.50;6.72;;;23.90;99.90;;;;;;5053910;28;20061;-75
2021/09/16 11:45:48;;;;;;;18.80;7.53;;;23.90;99.90;;;;;;5054181;28;20107;-75
2021/09/16 11:48:16;;;;;;;18.00;7.30;;;24.00;99.90;;;;;;5053444;28;20105;-75
2021/09/16 11:50:44;;;;;;;17.40;8.20;;;24.00;99.90;;;;;;5053953;28;20025;-75
2021/09/16 11:53:13;;;;;;;17.15;8.68;;;24.00;99.90;;;;;;5053797;28;20029;-75
2021/09/16 11:55:40;;;;;;;23.00;10.10;;;24.10;99.90;;;;;;5053962;28;20028;-75
2021/09/16 11:58:14;;;;;;;26.50;11.98;;;24.10;99.90;;;;;;5055951;28;20110;-75
2021/09/16 12:01:01;;;;;;;20.80;12.70;;;24.20;99.90;;;;;;5033816;28;20029;-75
2021/09/16 12:03:28;;;;;;;23.50;13.00;;;24.20;99.90;;;;;;5036835;28;20028;-74
2021/09/16 12:05:59;;;;;;;26.45;12.73;;;24.30;99.90;;;;;;5053742;28;20032;-75
2021/09/16 12:08:25;;;;;;;28.75;13.70;;;24.40;99.90;;;;;;5051948;28;20514;-75
2021/09/16 12:10:54;;;;;;;21.50;13.65;;;24.60;99.90;;;;;;5052082;28;20033;-75
2021/09/16 12:13:23;;;;;;;20.88;13.00;;;24.60;99.90;;;;;;5052078;28;20051;-75
2021/09/16 12:15:57;;;;;;;18.38;11.38;;;24.70;99.90;;;;;;5053054;28;20486;-74
2021/09/16 12:18:23;;;;;;;22.75;12.70;;;24.70;99.90;;;;;;5053021;28;20478;-75
2021/09/16 12:20:49;;;;;;;21.25;12.68;;;24.70;99.90;;;;;;5052322;28;20050;-75
2021/09/16 12:23:17;;;;;;;22.80;12.43;;;24.80;99.90;;;;;;5051024;28;20028;-75
2021/09/16 12:25:49;;;;;;;27.85;13.45;;;24.80;99.90;;;;;;5049551;28;20056;-75
2021/09/16 12:28:15;;;;;;;22.55;13.52;;;24.70;99.90;;;;;;5052136;28;20056;-75
2021/09/16 12:30:42;;;;;;;29.25;14.38;;;24.80;99.90;;;;;;5051891;28;20099;-75
2021/09/16 12:33:31;;;;;;;26.95;14.98;;;24.80;99.90;;;;;;5050902;28;20111;-75
2021/09/16 12:36:15;;;;;;;27.75;15.20;;;24.80;99.90;;;;;;5051424;28;20056;-75